Time;durP1;ratioP1;P1;durP2;ratioP2;P2;SDS_P1;SDS_P2;PMS_P1;PMS_P2;Temp;Humidity;BMP_temperature;BMP_pressure;BME280_temperature;BME280_humidity;BME280_pressure;Samples;Min_cycle;Max_cycle;Signal;HPM_P1;HPM_P2
2023/09/26 00:00:24;;;;;;;1.50;0.50;;;14.70;77.80;;;;;;5011725;28;20483;-70
2023/09/26 00:02:52;;;;;;;0.47;0.47;;;14.80;78.60;;;;;;5012397;28;20041;-70
2023/09/26 00:05:19;;;;;;;0.40;0.40;;;14.70;78.70;;;;;;5028439;28;20034;-70
2023/09/26 00:07:45;;;;;;;1.20;1.10;;;14.70;79.00;;;;;;5012521;28;20034;-70
2023/09/26 00:10:12;;;;;;;;;;;14.70;79.10;;;;;;5011976;28;20034;-70
2023/09/26 00:12:38;;;;;;;0.83;0.53;;;14.70;78.90;;;;;;5013579;28;19913;-70
2023/09/26 00:15:06;;;;;;;1.83;1.27;;;14.70;78.30;;;;;;5013253;28;20105;-70
2023/09/26 00:17:33;;;;;;;1.40;0.82;;;14.70;78.90;;;;;;5012061;28;20065;-70
2023/09/26 00:19:59;;;;;;;0.47;0.30;;;14.70;78.90;;;;;;5012052;28;20049;-70
2023/09/26 00:22:25;;;;;;;0.80;0.50;;;14.80;79.10;;;;;;5012827;28;20510;-70
2023/09/26 00:24:51;;;;;;;3.47;1.58;;;14.70;79.10;;;;;;5013740;28;20042;-70
2023/09/26 00:27:18;;;;;;;5.60;3.35;;;14.70;79.20;;;;;;5012937;28;20567;-70
2023/09/26 00:29:44;;;;;;;0.20;0.20;;;14.80;79.00;;;;;;5011974;28;20095;-70
2023/09/26 00:32:11;;;;;;;0.93;0.47;;;14.70;79.20;;;;;;5011182;28;20038;-70
2023/09/26 00:34:37;;;;;;;1.65;0.60;;;14.70;79.30;;;;;;4995352;28;20053;-70
2023/09/26 00:37:03;;;;;;;1.60;0.73;;;14.70;79.40;;;;;;5011475;28;20036;-70
2023/09/26 00:39:30;;;;;;;1.15;0.77;;;14.70;79.50;;;;;;5013276;28;20034;-70
2023/09/26 00:41:56;;;;;;;1.00;0.88;;;14.70;79.40;;;;;;5011042;28;20064;-70
2023/09/26 00:44:22;;;;;;;0.98;0.80;;;14.80;79.50;;;;;;5011576;28;20030;-70
2023/09/26 00:46:48;;;;;;;0.40;0.40;;;14.80;79.50;;;;;;5012634;28;20033;-70
2023/09/26 00:49:15;;;;;;;0.30;0.30;;;14.70;79.50;;;;;;5028242;28;20140;-70
2023/09/26 00:51:41;;;;;;;0.80;0.65;;;14.80;79.00;;;;;;5027020;28;20048;-70
2023/09/26 00:54:09;;;;;;;0.98;0.43;;;14.70;80.00;;;;;;5013141;28;20046;-70
2023/09/26 00:56:37;;;;;;;0.55;0.45;;;14.70;80.00;;;;;;5012387;28;20069;-70
2023/09/26 00:59:04;;;;;;;1.45;0.57;;;14.70;80.30;;;;;;5011551;28;20398;-70
2023/09/26 01:01:32;;;;;;;0.73;0.40;;;14.70;80.20;;;;;;5010656;28;20033;-70
2023/09/26 01:03:59;;;;;;;1.20;0.85;;;14.70;80.30;;;;;;5027872;28;20091;-70
2023/09/26 01:06:25;;;;;;;0.57;0.43;;;14.70;80.10;;;;;;5027301;28;20030;-70
2023/09/26 01:08:51;;;;;;;1.00;0.55;;;14.70;80.90;;;;;;5011239;28;20046;-70
2023/09/26 01:11:17;;;;;;;1.50;0.75;;;14.60;81.30;;;;;;5009927;28;20034;-70
2023/09/26 01:13:45;;;;;;;2.40;1.00;;;14.60;81.60;;;;;;5011264;28;20478;-70
2023/09/26 01:16:29;;;;;;;0.80;0.47;;;14.70;81.50;;;;;;5012022;28;20069;-70
2023/09/26 01:18:55;;;;;;;0.43;0.25;;;14.60;81.50;;;;;;5012553;28;20034;-70
2023/09/26 01:21:22;;;;;;;0.43;0.40;;;14.70;81.30;;;;;;5010408;28;20097;-70
2023/09/26 01:24:00;;;;;;;;;;;14.70;81.40;;;;;;5011544;28;20077;-70
2023/09/26 01:26:38;;;;;;;0.65;0.60;;;14.70;81.10;;;;;;5010554;28;19918;-70
2023/09/26 01:29:06;;;;;;;0.63;0.43;;;14.60;81.10;;;;;;5027206;28;20042;-70
2023/09/26 01:31:51;;;;;;;2.25;0.77;;;14.60;80.90;;;;;;4993909;28;20042;-70
2023/09/26 01:34:17;;;;;;;0.50;0.50;;;14.60;81.60;;;;;;5012483;28;20093;-70
2023/09/26 01:36:43;;;;;;;0.73;0.40;;;14.60;81.60;;;;;;5011972;28;20041;-70
2023/09/26 01:39:09;;;;;;;;;;;14.60;81.60;;;;;;5012889;28;20093;-70
2023/09/26 01:41:35;;;;;;;1.02;0.77;;;14.60;81.50;;;;;;5010100;28;20022;-70
2023/09/26 01:44:01;;;;;;;0.95;0.60;;;14.60;81.50;;;;;;5010965;28;20041;-70
2023/09/26 01:46:27;;;;;;;0.45;0.30;;;14.50;81.70;;;;;;5010485;28;20041;-70
2023/09/26 01:48:53;;;;;;;0.35;0.30;;;14.50;81.70;;;;;;5012398;28;20042;-70
2023/09/26 01:51:20;;;;;;;0.50;0.40;;;14.50;81.80;;;;;;5009920;28;20403;-70
2023/09/26 01:53:46;;;;;;;0.52;0.30;;;14.50;81.60;;;;;;5010821;28;20046;-70
2023/09/26 01:56:12;;;;;;;0.77;0.50;;;14.50;81.50;;;;;;5010413;28;20030;-70
2023/09/26 01:58:38;;;;;;;0.55;0.32;;;14.50;81.30;;;;;;5010759;28;20398;-70
2023/09/26 02:01:05;;;;;;;1.05;0.57;;;14.50;81.20;;;;;;5009803;28;20034;-70
2023/09/26 02:03:32;;;;;;;0.80;0.73;;;14.60;81.00;;;;;;4994340;28;20038;-69
2023/09/26 02:05:58;;;;;;;0.73;0.43;;;14.70;80.80;;;;;;5010602;28;20034;-70
2023/09/26 02:08:25;;;;;;;;;;;14.70;80.60;;;;;;5012614;28;20494;-70
2023/09/26 02:10:51;;;;;;;0.68;0.35;;;14.80;79.80;;;;;;5009726;28;19933;-70
2023/09/26 02:13:17;;;;;;;0.60;0.45;;;14.80;80.30;;;;;;5012160;28;20041;-70
2023/09/26 02:15:43;;;;;;;0.60;0.28;;;14.80;80.30;;;;;;5011413;28;20034;-70
2023/09/26 02:18:09;;;;;;;0.30;0.30;;;14.80;80.20;;;;;;5010674;28;20030;-70
2023/09/26 02:20:35;;;;;;;0.77;0.77;;;14.80;80.30;;;;;;4993202;28;20045;-70
2023/09/26 02:23:01;;;;;;;1.02;0.38;;;14.80;80.10;;;;;;5015682;28;20041;-69
2023/09/26 02:25:28;;;;;;;1.63;1.13;;;14.90;80.10;;;;;;5015160;28;20069;-70
2023/09/26 02:27:54;;;;;;;1.92;1.35;;;14.90;80.10;;;;;;5014083;28;20030;-70
2023/09/26 02:30:24;;;;;;;0.20;0.20;;;14.90;80.10;;;;;;5029788;28;20041;-70
2023/09/26 02:32:50;;;;;;;0.57;0.50;;;14.90;79.90;;;;;;5030767;28;20474;-70
2023/09/26 02:35:18;;;;;;;;;;;14.90;80.70;;;;;;5014220;28;20045;-70
2023/09/26 02:37:44;;;;;;;0.63;0.63;;;14.90;79.90;;;;;;5014251;28;19920;-70
2023/09/26 02:40:12;;;;;;;0.50;0.40;;;14.90;79.80;;;;;;5013212;28;20065;-70
2023/09/26 02:42:50;;;;;;;0.75;0.50;;;14.90;79.70;;;;;;5030541;28;20038;-70
2023/09/26 02:45:16;;;;;;;0.57;0.50;;;15.00;79.70;;;;;;5028753;28;20070;-70
2023/09/26 02:47:43;;;;;;;0.85;0.60;;;15.00;79.80;;;;;;5030411;28;20041;-70
2023/09/26 02:50:11;;;;;;;0.45;0.40;;;15.00;79.90;;;;;;5029457;28;20042;-70
2023/09/26 02:52:41;;;;;;;0.88;0.65;;;15.00;79.90;;;;;;5030143;28;20549;-70
2023/09/26 02:55:07;;;;;;;0.65;0.40;;;15.10;80.00;;;;;;5014953;28;20113;-70
2023/09/26 02:57:34;;;;;;;0.45;0.30;;;15.00;79.40;;;;;;5015443;28;20026;-70
2023/09/26 03:00:08;;;;;;;1.20;0.55;;;15.00;79.90;;;;;;5013728;28;20037;-70
2023/09/26 03:02:35;;;;;;;0.35;0.35;;;15.00;80.10;;;;;;5013443;28;20042;-70
2023/09/26 03:05:01;;;;;;;0.38;0.35;;;15.00;80.20;;;;;;5030132;28;20040;-70
2023/09/26 03:07:26;;;;;;;0.73;0.52;;;15.10;80.20;;;;;;5014799;28;20038;-70
2023/09/26 03:09:53;;;;;;;0.63;0.60;;;15.00;80.00;;;;;;5015053;28;20057;-69
2023/09/26 03:12:19;;;;;;;1.33;0.50;;;15.10;79.90;;;;;;5013732;28;20041;-70
2023/09/26 03:14:45;;;;;;;0.20;0.20;;;15.10;79.90;;;;;;4997189;28;20395;-69
2023/09/26 03:17:11;;;;;;;0.40;0.20;;;15.10;79.90;;;;;;5014225;28;20088;-70
2023/09/26 03:19:37;;;;;;;0.50;0.40;;;15.10;79.80;;;;;;5013215;28;20442;-70
2023/09/26 03:22:03;;;;;;;1.35;1.20;;;15.20;79.90;;;;;;5013733;28;20038;-70
2023/09/26 03:24:29;;;;;;;0.75;0.65;;;15.20;79.90;;;;;;5014294;28;20034;-70
2023/09/26 03:26:55;;;;;;;2.15;0.80;;;15.20;80.10;;;;;;5014117;28;20443;-70
2023/09/26 03:29:21;;;;;;;;;;;15.10;80.30;;;;;;5015053;28;20048;-70
2023/09/26 03:31:48;;;;;;;0.30;0.30;;;15.10;80.40;;;;;;5013534;28;20174;-70
2023/09/26 03:34:14;;;;;;;1.38;0.60;;;15.10;80.40;;;;;;5012276;28;20509;-70
2023/09/26 03:36:40;;;;;;;0.25;0.25;;;15.10;80.60;;;;;;5013863;28;20479;-70
2023/09/26 03:39:07;;;;;;;0.25;0.25;;;15.00;80.80;;;;;;5014376;28;20076;-70
2023/09/26 03:41:33;;;;;;;0.50;0.25;;;15.00;80.80;;;;;;5013332;28;20030;-69
2023/09/26 03:43:59;;;;;;;;;;;15.00;80.70;;;;;;5014854;28;20042;-70
2023/09/26 03:46:25;;;;;;;0.35;0.20;;;15.00;80.40;;;;;;5012417;28;20013;-70
2023/09/26 03:48:51;;;;;;;0.85;0.85;;;15.00;80.30;;;;;;5012921;28;20042;-70
2023/09/26 03:51:17;;;;;;;2.05;0.82;;;15.00;80.50;;;;;;5011620;28;20038;-70
2023/09/26 03:53:44;;;;;;;0.32;0.32;;;15.00;80.70;;;;;;5013813;28;20050;-70
2023/09/26 03:56:10;;;;;;;0.25;0.25;;;15.00;80.30;;;;;;5013864;28;20081;-70
2023/09/26 03:58:37;;;;;;;;;;;15.00;80.40;;;;;;5014584;28;20037;-70
2023/09/26 04:01:21;;;;;;;2.33;1.80;;;15.10;80.40;;;;;;5011725;28;19949;-70
2023/09/26 04:03:52;;;;;;;0.70;0.38;;;15.10;81.00;;;;;;5013964;28;20484;-70
2023/09/26 04:06:18;;;;;;;0.43;0.20;;;15.10;81.00;;;;;;5012157;28;20073;-70
2023/09/26 04:08:45;;;;;;;0.70;0.20;;;15.00;81.10;;;;;;5029073;28;20449;-70
2023/09/26 04:11:30;;;;;;;0.47;0.35;;;15.00;81.30;;;;;;4995426;28;20501;-70
2023/09/26 04:13:56;;;;;;;0.35;0.32;;;15.00;81.40;;;;;;4995855;28;20126;-70
2023/09/26 04:16:22;;;;;;;1.20;1.10;;;15.00;81.40;;;;;;5013087;28;20074;-70
2023/09/26 04:18:49;;;;;;;1.40;0.73;;;15.00;81.40;;;;;;5012451;28;20046;-69
2023/09/26 04:21:14;;;;;;;;;;;15.00;81.30;;;;;;5012890;28;20042;-70
2023/09/26 04:23:40;;;;;;;0.80;0.32;;;15.10;81.30;;;;;;5012364;28;20427;-69
2023/09/26 04:26:25;;;;;;;0.77;0.35;;;15.00;81.00;;;;;;5012919;28;20053;-70
2023/09/26 04:28:51;;;;;;;1.73;1.13;;;15.10;81.40;;;;;;5013650;28;20395;-70
2023/09/26 04:31:19;;;;;;;0.88;0.60;;;15.00;81.20;;;;;;5012330;28;20100;-70
2023/09/26 04:33:47;;;;;;;1.83;0.90;;;15.10;81.40;;;;;;5028430;28;20041;-70
2023/09/26 04:36:13;;;;;;;0.43;0.30;;;15.10;81.30;;;;;;5027966;28;20045;-70
2023/09/26 04:38:40;;;;;;;0.20;0.20;;;15.10;81.40;;;;;;5011673;28;20127;-70
2023/09/26 04:41:06;;;;;;;0.65;0.65;;;15.10;81.00;;;;;;5027474;28;20515;-70
2023/09/26 04:43:33;;;;;;;0.22;0.22;;;15.20;81.60;;;;;;5028205;28;20040;-69
2023/09/26 04:46:00;;;;;;;0.60;0.50;;;15.20;81.60;;;;;;5027734;28;20034;-69
2023/09/26 04:48:26;;;;;;;1.05;0.60;;;15.20;81.00;;;;;;5011701;28;20025;-70
2023/09/26 04:50:54;;;;;;;0.43;0.43;;;15.20;81.90;;;;;;5011965;28;20042;-69
2023/09/26 04:53:21;;;;;;;0.32;0.28;;;15.20;81.70;;;;;;5013046;28;20126;-70
2023/09/26 04:55:47;;;;;;;3.03;1.02;;;15.20;82.20;;;;;;5010817;28;20041;-70
2023/09/26 04:58:13;;;;;;;0.95;0.60;;;15.10;83.80;;;;;;5012684;28;20068;-70
2023/09/26 05:00:39;;;;;;;1.13;0.50;;;15.20;82.80;;;;;;5010442;28;20069;-70
2023/09/26 05:03:05;;;;;;;0.35;0.35;;;15.20;82.80;;;;;;5012830;28;20467;-70
2023/09/26 05:05:31;;;;;;;0.65;0.40;;;15.20;82.60;;;;;;5011143;28;20475;-70
2023/09/26 05:07:57;;;;;;;0.73;0.50;;;15.30;82.60;;;;;;5011251;28;20042;-70
2023/09/26 05:10:23;;;;;;;1.55;0.65;;;15.30;82.30;;;;;;5010577;28;20128;-70
2023/09/26 05:12:49;;;;;;;2.45;1.45;;;15.40;82.20;;;;;;5012557;28;20096;-70
2023/09/26 05:15:17;;;;;;;1.15;0.70;;;15.40;82.30;;;;;;5010819;28;20427;-70
2023/09/26 05:17:49;;;;;;;1.38;0.75;;;15.40;82.10;;;;;;5012562;28;20030;-70
2023/09/26 05:20:16;;;;;;;1.23;0.65;;;15.50;82.10;;;;;;5010337;28;20080;-70
2023/09/26 05:22:45;;;;;;;1.02;0.82;;;15.60;81.80;;;;;;5027605;28;20057;-70
2023/09/26 05:25:12;;;;;;;1.10;0.57;;;15.60;81.50;;;;;;5010857;28;20034;-70
2023/09/26 05:27:40;;;;;;;1.00;0.93;;;15.70;80.90;;;;;;5011187;28;20048;-70
2023/09/26 05:30:07;;;;;;;0.93;0.60;;;15.70;81.30;;;;;;5010385;28;20025;-70
2023/09/26 05:32:33;;;;;;;1.00;0.73;;;15.80;81.20;;;;;;5010990;28;20038;-70
2023/09/26 05:34:59;;;;;;;0.20;0.20;;;15.80;81.20;;;;;;5011106;28;20061;-70
2023/09/26 05:37:25;;;;;;;0.55;0.50;;;15.90;81.30;;;;;;5010640;28;20076;-70
2023/09/26 05:39:51;;;;;;;1.10;0.65;;;15.90;81.20;;;;;;5012014;28;20050;-70
2023/09/26 05:42:17;;;;;;;1.30;0.63;;;16.00;80.90;;;;;;5010192;28;20450;-70
2023/09/26 05:44:43;;;;;;;3.20;1.13;;;16.10;81.00;;;;;;5012429;28;20113;-70
2023/09/26 05:47:09;;;;;;;1.38;0.40;;;16.10;81.00;;;;;;5011847;28;20050;-70
2023/09/26 05:49:35;;;;;;;0.45;0.45;;;16.10;80.90;;;;;;5010924;28;20038;-70
2023/09/26 05:52:02;;;;;;;1.30;0.63;;;16.20;80.90;;;;;;5010071;28;20037;-70
2023/09/26 05:57:16;;;;;;;0.70;0.70;;;16.30;80.30;;;;;;5013913;28;20060;-70
2023/09/26 05:59:42;;;;;;;0.25;0.20;;;16.40;80.50;;;;;;5014961;28;20038;-70
2023/09/26 06:02:13;;;;;;;0.82;0.55;;;16.40;80.50;;;;;;5030566;28;20048;-70
2023/09/26 06:04:57;;;;;;;1.13;0.60;;;16.40;80.30;;;;;;5014902;28;20125;-70
2023/09/26 06:07:23;;;;;;;2.63;1.08;;;16.50;80.50;;;;;;5015526;28;20116;-70
2023/09/26 06:09:49;;;;;;;0.77;0.40;;;16.60;80.40;;;;;;5014751;28;20045;-70
2023/09/26 06:12:16;;;;;;;0.55;0.43;;;16.70;80.30;;;;;;5013827;28;20449;-70
2023/09/26 06:14:42;;;;;;;1.60;0.90;;;16.70;80.00;;;;;;5016069;28;20041;-70
2023/09/26 06:17:08;;;;;;;1.23;0.70;;;16.80;79.70;;;;;;5015496;28;20077;-70
2023/09/26 06:19:33;;;;;;;0.43;0.30;;;16.80;79.80;;;;;;5015749;28;20049;-70
2023/09/26 06:21:59;;;;;;;3.03;0.63;;;16.90;79.70;;;;;;4997524;28;20703;-70
2023/09/26 06:24:27;;;;;;;0.98;0.88;;;17.00;79.10;;;;;;5014496;28;20041;-70
2023/09/26 06:26:53;;;;;;;1.05;0.70;;;17.10;78.90;;;;;;5015144;28;20030;-70
2023/09/26 06:29:19;;;;;;;1.50;0.88;;;17.10;78.70;;;;;;5015710;28;20052;-70
2023/09/26 06:31:45;;;;;;;1.48;0.70;;;17.30;78.70;;;;;;5014765;28;20030;-70
2023/09/26 06:34:11;;;;;;;0.73;0.70;;;17.40;78.40;;;;;;5014121;28;20041;-70
2023/09/26 06:36:37;;;;;;;0.95;0.57;;;17.40;78.30;;;;;;5015032;28;20096;-70
2023/09/26 06:39:03;;;;;;;1.38;0.60;;;17.50;78.10;;;;;;5014112;28;20052;-70
2023/09/26 06:41:29;;;;;;;;;;;17.50;78.20;;;;;;5013641;28;20049;-70
2023/09/26 06:43:56;;;;;;;1.15;0.90;;;17.60;78.30;;;;;;5014041;28;19921;-70
2023/09/26 06:46:22;;;;;;;0.35;0.30;;;17.60;77.90;;;;;;5014796;28;20030;-70
2023/09/26 06:48:48;;;;;;;;;;;17.70;78.00;;;;;;5015908;28;20048;-70
2023/09/26 06:51:14;;;;;;;1.48;0.50;;;17.70;78.20;;;;;;5014162;28;20293;-70
2023/09/26 06:53:40;;;;;;;0.52;0.43;;;17.80;77.70;;;;;;5013845;28;20433;-70
2023/09/26 06:56:08;;;;;;;0.80;0.30;;;17.80;77.50;;;;;;5013291;28;20033;-70
2023/09/26 06:58:36;;;;;;;0.85;0.57;;;17.80;77.50;;;;;;5013796;28;20038;-70
2023/09/26 07:01:03;;;;;;;0.80;0.50;;;17.90;77.50;;;;;;5029374;28;20466;-70
2023/09/26 07:03:29;;;;;;;0.93;0.43;;;17.90;77.80;;;;;;5013535;28;20042;-71
2023/09/26 07:05:56;;;;;;;0.80;0.40;;;18.00;77.50;;;;;;5013056;28;20033;-71
2023/09/26 07:08:23;;;;;;;0.57;0.40;;;18.00;77.00;;;;;;5028713;28;20046;-71
2023/09/26 07:10:50;;;;;;;1.23;0.60;;;18.20;76.90;;;;;;5029035;28;20034;-71
2023/09/26 07:13:17;;;;;;;0.80;0.45;;;18.30;76.90;;;;;;4997101;28;20513;-71
2023/09/26 07:15:43;;;;;;;0.25;0.25;;;18.50;76.80;;;;;;5012998;28;20029;-71
2023/09/26 07:20:54;;;;;;;0.28;0.28;;;18.90;75.70;;;;;;5013633;28;20044;-70
2023/09/26 07:23:20;;;;;;;;;;;19.00;75.40;;;;;;5013937;28;20066;-71
2023/09/26 07:25:47;;;;;;;0.77;0.65;;;19.10;75.70;;;;;;5012774;28;19914;-71
2023/09/26 07:28:13;;;;;;;2.58;0.93;;;19.20;75.30;;;;;;5014400;28;20590;-71
2023/09/26 07:30:39;;;;;;;0.10;0.10;;;19.20;75.10;;;;;;5013448;28;20038;-71
2023/09/26 07:33:05;;;;;;;0.43;0.40;;;19.30;75.10;;;;;;5013070;28;20395;-71
2023/09/26 07:35:31;;;;;;;0.50;0.47;;;19.40;75.10;;;;;;5012585;28;20038;-71
2023/09/26 07:37:58;;;;;;;0.32;0.20;;;19.70;75.00;;;;;;5014703;28;20033;-71
2023/09/26 07:40:24;;;;;;;1.08;0.52;;;20.70;71.90;;;;;;5013219;28;20217;-71
2023/09/26 07:42:50;;;;;;;;;;;21.60;69.00;;;;;;5013464;28;20414;-71
2023/09/26 07:45:16;;;;;;;0.88;0.47;;;22.60;67.70;;;;;;5013637;28;19930;-71
2023/09/26 07:47:44;;;;;;;1.58;0.73;;;23.40;64.30;;;;;;5029250;28;20041;-71
2023/09/26 07:50:10;;;;;;;0.43;0.40;;;24.10;61.30;;;;;;5013119;28;20034;-71
2023/09/26 07:52:37;;;;;;;1.15;0.93;;;24.80;59.80;;;;;;5012660;28;20099;-71
2023/09/26 07:55:05;;;;;;;0.30;0.30;;;25.50;57.30;;;;;;5028872;28;20048;-71
2023/09/26 07:57:31;;;;;;;1.50;0.60;;;26.30;55.40;;;;;;5012503;28;20033;-72
2023/09/26 07:59:58;;;;;;;0.63;0.47;;;27.00;53.30;;;;;;5012509;28;20041;-71
2023/09/26 08:02:24;;;;;;;2.03;1.10;;;27.70;50.30;;;;;;5012891;28;20092;-71
2023/09/26 08:04:50;;;;;;;0.88;0.50;;;28.30;48.90;;;;;;5012508;28;20050;-71
2023/09/26 08:07:16;;;;;;;1.65;1.52;;;28.90;45.80;;;;;;5012026;28;20026;-71
2023/09/26 08:09:42;;;;;;;0.70;0.55;;;29.70;45.00;;;;;;5028819;28;20434;-71
2023/09/26 08:12:08;;;;;;;0.65;0.60;;;30.30;42.30;;;;;;5012768;28;20049;-71
2023/09/26 08:14:34;;;;;;;0.60;0.50;;;30.80;38.80;;;;;;5028942;28;20033;-71
2023/09/26 08:17:00;;;;;;;7.65;0.93;;;31.40;37.70;;;;;;5013084;28;20045;-71
2023/09/26 08:19:26;;;;;;;0.52;0.52;;;31.80;35.50;;;;;;5011586;28;20048;-72
2023/09/26 08:21:52;;;;;;;1.13;0.82;;;32.20;34.80;;;;;;5011341;28;20497;-71
2023/09/26 08:24:18;;;;;;;0.60;0.60;;;32.70;33.20;;;;;;5013582;28;20046;-71
2023/09/26 08:26:44;;;;;;;1.27;0.70;;;33.00;32.30;;;;;;5011611;28;20026;-71
2023/09/26 08:29:10;;;;;;;0.77;0.60;;;33.30;31.60;;;;;;5012137;28;20096;-71
2023/09/26 08:31:36;;;;;;;0.40;0.40;;;33.90;31.20;;;;;;5012244;28;20086;-71
2023/09/26 08:34:03;;;;;;;0.28;0.28;;;34.40;29.10;;;;;;5013365;28;20042;-71
2023/09/26 08:36:30;;;;;;;1.23;0.57;;;34.40;28.90;;;;;;5012889;28;20038;-71
2023/09/26 08:38:56;;;;;;;0.60;0.60;;;34.90;29.10;;;;;;5013197;28;20033;-71
2023/09/26 08:41:26;;;;;;;1.08;0.75;;;35.30;27.90;;;;;;5012305;28;20530;-71
2023/09/26 08:43:52;;;;;;;1.20;1.10;;;35.50;26.80;;;;;;5011854;28;20029;-72
2023/09/26 08:46:19;;;;;;;0.57;0.45;;;35.80;26.20;;;;;;5012321;28;20482;-71
2023/09/26 08:48:46;;;;;;;1.60;0.55;;;36.30;26.40;;;;;;5011728;28;20034;-72
2023/09/26 08:51:12;;;;;;;0.20;0.20;;;36.60;25.80;;;;;;5010641;28;20060;-72
2023/09/26 08:53:38;;;;;;;0.57;0.52;;;37.10;25.40;;;;;;5012743;28;20052;-71
2023/09/26 08:56:05;;;;;;;0.40;0.40;;;37.40;25.20;;;;;;5011207;28;20030;-72
2023/09/26 08:58:32;;;;;;;0.30;0.25;;;37.50;24.20;;;;;;5011560;28;20037;-72
2023/09/26 09:00:58;;;;;;;0.60;0.60;;;37.80;23.90;;;;;;5011849;28;20488;-72
2023/09/26 09:03:24;;;;;;;1.23;0.60;;;38.30;24.00;;;;;;5012576;28;20029;-72
2023/09/26 09:05:50;;;;;;;0.40;0.40;;;38.70;23.60;;;;;;5012257;28;20026;-72
2023/09/26 09:08:20;;;;;;;0.40;0.40;;;39.10;23.60;;;;;;5011494;28;20030;-71
2023/09/26 09:11:05;;;;;;;1.65;0.90;;;39.60;23.10;;;;;;5010507;28;20037;-72
2023/09/26 09:13:33;;;;;;;1.05;0.82;;;39.90;22.60;;;;;;5011202;28;20089;-73
2023/09/26 09:16:18;;;;;;;0.95;0.88;;;40.20;22.20;;;;;;5027209;28;20037;-72
2023/09/26 09:18:50;;;;;;;2.05;1.02;;;40.50;21.10;;;;;;5011171;28;20034;-72
2023/09/26 09:21:39;;;;;;;0.63;0.60;;;40.60;21.30;;;;;;5011465;28;20096;-72
2023/09/26 09:24:07;;;;;;;0.60;0.57;;;40.10;21.50;;;;;;5011223;28;20030;-72
2023/09/26 09:26:36;;;;;;;0.93;0.85;;;39.20;22.00;;;;;;5010696;28;20030;-72
2023/09/26 09:29:22;;;;;;;1.92;1.13;;;38.30;23.60;;;;;;5010926;28;20117;-72
2023/09/26 09:31:50;;;;;;;0.75;0.75;;;37.70;23.90;;;;;;5009581;28;20053;-72
2023/09/26 09:34:16;;;;;;;0.52;0.52;;;37.70;23.90;;;;;;5010999;28;20030;-72
2023/09/26 09:36:44;;;;;;;0.57;0.57;;;37.50;23.90;;;;;;5010633;28;20502;-72
2023/09/26 09:39:10;;;;;;;0.55;0.50;;;36.90;24.00;;;;;;5027530;28;20041;-72
2023/09/26 09:41:49;;;;;;;0.45;0.45;;;36.10;25.90;;;;;;5011306;28;20568;-72
2023/09/26 09:44:16;;;;;;;0.80;0.80;;;35.20;26.80;;;;;;5011184;28;20466;-72
2023/09/26 09:46:43;;;;;;;0.50;0.40;;;34.50;27.10;;;;;;5027104;28;20038;-72
2023/09/26 09:49:12;;;;;;;0.45;0.45;;;33.90;27.30;;;;;;5012535;28;20042;-72
2023/09/26 09:52:00;;;;;;;0.55;0.50;;;34.00;28.30;;;;;;5026297;28;20034;-72
2023/09/26 09:54:33;;;;;;;0.85;0.60;;;34.10;27.80;;;;;;5010604;28;20092;-71
2023/09/26 09:57:25;;;;;;;0.50;0.50;;;33.60;28.40;;;;;;4994188;28;20088;-71
2023/09/26 09:59:52;;;;;;;0.65;0.65;;;32.90;29.40;;;;;;5010553;28;20042;-71
2023/09/26 10:02:22;;;;;;;0.75;0.57;;;32.20;30.80;;;;;;5009773;28;20580;-71
2023/09/26 10:04:48;;;;;;;1.45;0.93;;;31.60;32.00;;;;;;5012390;28;20100;-71
2023/09/26 10:07:15;;;;;;;1.05;0.70;;;31.20;33.10;;;;;;5010247;28;20037;-71
2023/09/26 10:09:43;;;;;;;0.80;0.75;;;31.00;34.00;;;;;;5010678;28;20231;-71
2023/09/26 10:12:10;;;;;;;0.52;0.52;;;30.70;34.10;;;;;;5009881;28;20428;-71
2023/09/26 10:14:37;;;;;;;0.55;0.40;;;30.50;35.20;;;;;;5010525;28;20577;-71
2023/09/26 10:17:05;;;;;;;0.45;0.43;;;31.00;33.80;;;;;;5026580;28;20034;-71
2023/09/26 10:19:34;;;;;;;0.35;0.35;;;32.90;31.20;;;;;;5010319;28;20042;-71
2023/09/26 10:22:20;;;;;;;0.45;0.38;;;33.50;30.10;;;;;;5009854;28;20473;-71
2023/09/26 10:24:48;;;;;;;0.40;0.40;;;33.40;30.90;;;;;;5027062;28;20390;-71
2023/09/26 10:27:34;;;;;;;1.42;0.75;;;33.30;30.70;;;;;;5010130;28;20136;-71
2023/09/26 10:30:19;;;;;;;0.77;0.50;;;32.70;31.20;;;;;;5011970;28;20066;-71
2023/09/26 10:32:46;;;;;;;1.25;0.85;;;31.60;33.50;;;;;;5010177;28;20049;-71
2023/09/26 10:35:31;;;;;;;0.55;0.55;;;31.10;35.40;;;;;;5009883;28;20040;-71
2023/09/26 10:38:18;;;;;;;1.30;0.93;;;30.70;35.80;;;;;;5010311;28;20049;-71
2023/09/26 10:41:04;;;;;;;1.60;1.40;;;30.40;37.20;;;;;;5009403;28;20125;-71
2023/09/26 10:43:29;;;;;;;0.30;0.30;;;30.10;38.00;;;;;;5014746;28;20037;-71
2023/09/26 10:45:57;;;;;;;1.20;0.75;;;29.90;38.40;;;;;;5013581;28;20026;-71
2023/09/26 10:48:23;;;;;;;0.90;0.63;;;29.70;37.90;;;;;;4997652;28;20030;-71
2023/09/26 10:50:50;;;;;;;0.68;0.50;;;29.60;39.10;;;;;;5014219;28;20399;-71
2023/09/26 10:53:17;;;;;;;1.70;0.50;;;29.40;39.70;;;;;;5013784;28;20049;-71
2023/09/26 10:55:45;;;;;;;1.73;0.80;;;29.40;40.00;;;;;;5014622;28;20050;-71
2023/09/26 10:58:20;;;;;;;0.80;0.60;;;29.30;40.50;;;;;;4997362;28;20065;-71
2023/09/26 11:01:08;;;;;;;1.25;1.02;;;29.10;41.30;;;;;;5012872;28;20518;-71
2023/09/26 11:03:35;;;;;;;1.38;0.98;;;29.00;41.40;;;;;;5013675;28;20041;-71
2023/09/26 11:06:20;;;;;;;0.47;0.40;;;29.10;41.50;;;;;;5014478;28;20034;-71
2023/09/26 11:08:47;;;;;;;0.65;0.50;;;29.00;41.90;;;;;;5013879;28;20103;-71
2023/09/26 11:11:16;;;;;;;2.05;1.33;;;28.90;43.00;;;;;;5012651;28;20065;-71
2023/09/26 11:13:42;;;;;;;0.40;0.38;;;28.90;42.30;;;;;;5013469;28;20506;-71
2023/09/26 11:16:08;;;;;;;0.82;0.73;;;28.90;42.10;;;;;;5013014;28;20025;-71
2023/09/26 11:18:34;;;;;;;2.00;1.23;;;28.80;42.50;;;;;;5014421;28;20042;-71
2023/09/26 11:21:00;;;;;;;1.13;1.02;;;28.80;42.80;;;;;;5012457;28;20050;-71
2023/09/26 11:23:45;;;;;;;1.52;0.60;;;28.90;43.00;;;;;;5029854;28;20041;-71
2023/09/26 11:26:12;;;;;;;1.40;0.93;;;29.00;43.10;;;;;;5012709;28;20065;-71
2023/09/26 11:28:39;;;;;;;0.47;0.45;;;29.00;42.80;;;;;;4996861;28;20034;-71
2023/09/26 11:31:05;;;;;;;1.08;0.80;;;28.90;42.40;;;;;;5013537;28;20063;-71
2023/09/26 11:33:32;;;;;;;0.68;0.60;;;28.90;42.60;;;;;;5029517;28;20038;-71
2023/09/26 11:35:58;;;;;;;2.53;0.73;;;29.00;42.90;;;;;;5012736;28;20188;-71
2023/09/26 11:38:24;;;;;;;1.83;1.00;;;29.00;42.70;;;;;;5014362;28;20088;-71
2023/09/26 11:40:55;;;;;;;1.58;1.08;;;29.70;41.40;;;;;;5011979;28;20053;-71
2023/09/26 11:43:20;;;;;;;0.45;0.43;;;29.50;40.90;;;;;;5012910;28;20030;-71
2023/09/26 11:45:47;;;;;;;0.73;0.73;;;29.80;40.70;;;;;;5012524;28;20499;-71
2023/09/26 11:48:13;;;;;;;1.95;0.88;;;30.10;41.10;;;;;;5014139;28;20030;-71
2023/09/26 11:50:40;;;;;;;1.67;0.80;;;30.50;39.70;;;;;;4995369;28;20054;-71
2023/09/26 11:53:07;;;;;;;0.52;0.50;;;30.60;39.10;;;;;;5028987;28;20104;-71
2023/09/26 11:55:35;;;;;;;1.48;0.93;;;30.40;39.20;;;;;;5013006;28;20034;-71
2023/09/26 11:58:01;;;;;;;1.02;0.80;;;30.60;39.70;;;;;;5012727;28;20038;-71
2023/09/26 12:00:27;;;;;;;1.75;0.98;;;31.60;38.90;;;;;;5011610;28;20402;-71
2023/09/26 12:02:53;;;;;;;6.07;0.98;;;34.30;33.60;;;;;;5012479;28;20041;-71
2023/09/26 12:05:21;;;;;;;1.38;1.00;;;36.70;29.70;;;;;;5013226;28;20048;-71
2023/09/26 12:07:49;;;;;;;2.90;1.38;;;37.50;28.00;;;;;;5013785;28;20062;-71
2023/09/26 12:10:16;;;;;;;0.85;0.60;;;36.60;29.10;;;;;;5012974;28;20030;-71
2023/09/26 12:12:42;;;;;;;1.63;1.20;;;35.20;30.60;;;;;;5028824;28;20060;-71
2023/09/26 12:15:29;;;;;;;1.08;0.77;;;34.30;31.50;;;;;;5013119;28;20065;-71
2023/09/26 12:17:59;;;;;;;2.25;0.60;;;33.60;33.00;;;;;;5014014;28;20482;-72
2023/09/26 12:20:25;;;;;;;0.40;0.40;;;32.90;32.30;;;;;;5012408;28;20133;-71
2023/09/26 12:22:54;;;;;;;1.42;1.10;;;32.50;33.40;;;;;;5012182;28;20120;-71
2023/09/26 12:25:22;;;;;;;1.55;1.10;;;32.50;34.90;;;;;;5028106;28;20033;-71
2023/09/26 12:27:50;;;;;;;0.55;0.40;;;33.00;33.30;;;;;;5012127;28;20041;-71
2023/09/26 12:30:16;;;;;;;1.00;0.70;;;33.50;32.60;;;;;;5012303;28;20038;-71
2023/09/26 12:32:43;;;;;;;1.13;0.88;;;33.40;31.70;;;;;;5011835;28;20435;-71
2023/09/26 12:35:10;;;;;;;0.82;0.63;;;32.80;31.80;;;;;;5011846;28;20045;-71
2023/09/26 12:37:36;;;;;;;1.17;0.90;;;32.40;33.70;;;;;;5013260;28;20037;-71
2023/09/26 12:42:48;;;;;;;;;;;32.90;32.40;;;;;;5012430;28;20127;-72
2023/09/26 12:45:14;;;;;;;1.88;1.15;;;33.00;32.10;;;;;;5011296;28;19922;-71
2023/09/26 12:47:41;;;;;;;0.93;0.68;;;32.80;32.20;;;;;;5028195;28;20080;-71
2023/09/26 12:50:08;;;;;;;1.23;0.85;;;33.70;31.80;;;;;;5029800;28;20037;-71
2023/09/26 12:52:35;;;;;;;1.33;1.08;;;35.90;28.00;;;;;;5032369;28;20033;-72
2023/09/26 12:55:03;;;;;;;3.20;2.75;;;37.90;25.20;;;;;;5032540;28;20036;-72
2023/09/26 12:57:31;;;;;;;0.55;0.55;;;39.70;23.40;;;;;;5032234;28;20087;-72
2023/09/26 12:59:57;;;;;;;1.13;0.98;;;40.70;22.10;;;;;;5031295;28;20434;-72
2023/09/26 13:02:24;;;;;;;1.45;0.75;;;40.00;23.30;;;;;;5030411;28;20429;-72